sensor_id;sensor_type;location;lat;lon;timestamp;P1;durP1;ratioP1;P2;durP2;ratioP2
24381;SDS011;12502;50.678;7.172;2022-12-01T00:00:35;24.88;;;14.10;;
24381;SDS011;12502;50.678;7.172;2022-12-01T00:05:36;21.75;;;12.93;;
24381;SDS011;12502;50.678;7.172;2022-12-01T00:10:38;22.23;;;12.23;;
24381;SDS011;12502;50.678;7.172;2022-12-01T00:15:40;19.65;;;11.90;;
24381;SDS011;12502;50.678;7.172;2022-12-01T00:20:41;22.50;;;12.38;;
24381;SDS011;12502;50.678;7.172;2022-12-01T00:25:43;19.88;;;12.52;;
24381;SDS011;12502;50.678;7.172;2022-12-01T00:30:45;19.17;;;11.55;;
24381;SDS011;12502;50.678;7.172;2022-12-01T00:35:46;16.75;;;10.63;;
24381;SDS011;12502;50.678;7.172;2022-12-01T00:40:48;18.10;;;11.23;;
24381;SDS011;12502;50.678;7.172;2022-12-01T00:45:49;19.48;;;10.90;;
24381;SDS011;12502;50.678;7.172;2022-12-01T00:50:52;19.25;;;11.07;;
24381;SDS011;12502;50.678;7.172;2022-12-01T00:55:55;18.52;;;10.55;;
24381;SDS011;12502;50.678;7.172;2022-12-01T01:00:57;17.42;;;9.95;;
24381;SDS011;12502;50.678;7.172;2022-12-01T01:06:04;19.85;;;10.82;;
24381;SDS011;12502;50.678;7.172;2022-12-01T01:11:07;17.30;;;10.82;;
24381;SDS011;12502;50.678;7.172;2022-12-01T01:16:13;18.90;;;11.30;;
24381;SDS011;12502;50.678;7.172;2022-12-01T01:21:19;18.88;;;11.25;;
24381;SDS011;12502;50.678;7.172;2022-12-01T01:31:25;19.05;;;11.57;;
24381;SDS011;12502;50.678;7.172;2022-12-01T01:36:28;22.95;;;11.95;;
24381;SDS011;12502;50.678;7.172;2022-12-01T01:41:30;20.80;;;12.38;;
24381;SDS011;12502;50.678;7.172;2022-12-01T01:46:32;22.55;;;11.75;;
24381;SDS011;12502;50.678;7.172;2022-12-01T01:51:41;19.92;;;11.25;;
24381;SDS011;12502;50.678;7.172;2022-12-01T01:56:49;18.25;;;11.57;;
24381;SDS011;12502;50.678;7.172;2022-12-01T02:01:56;13.23;;;8.52;;
24381;SDS011;12502;50.678;7.172;2022-12-01T02:07:04;18.42;;;12.20;;
24381;SDS011;12502;50.678;7.172;2022-12-01T02:17:36;20.05;;;12.25;;
24381;SDS011;12502;50.678;7.172;2022-12-01T02:33:39;23.92;;;13.60;;
24381;SDS011;12502;50.678;7.172;2022-12-01T02:38:50;21.65;;;13.18;;
24381;SDS011;12502;50.678;7.172;2022-12-01T02:44:26;23.17;;;13.77;;
24381;SDS011;12502;50.678;7.172;2022-12-01T02:49:35;21.63;;;12.15;;
24381;SDS011;12502;50.678;7.172;2022-12-01T02:54:45;19.63;;;12.30;;
24381;SDS011;12502;50.678;7.172;2022-12-01T02:59:49;23.92;;;13.70;;
24381;SDS011;12502;50.678;7.172;2022-12-01T03:05:02;23.98;;;14.40;;
24381;SDS011;12502;50.678;7.172;2022-12-01T03:10:18;24.15;;;14.00;;
24381;SDS011;12502;50.678;7.172;2022-12-01T03:26:09;24.23;;;15.27;;
24381;SDS011;12502;50.678;7.172;2022-12-01T03:31:20;28.48;;;16.75;;
24381;SDS011;12502;50.678;7.172;2022-12-01T03:36:32;28.50;;;16.42;;
24381;SDS011;12502;50.678;7.172;2022-12-01T03:41:44;28.48;;;16.65;;
24381;SDS011;12502;50.678;7.172;2022-12-01T03:46:53;25.95;;;15.63;;
24381;SDS011;12502;50.678;7.172;2022-12-01T03:57:50;26.33;;;15.85;;
24381;SDS011;12502;50.678;7.172;2022-12-01T04:03:05;29.42;;;16.98;;
24381;SDS011;12502;50.678;7.172;2022-12-01T04:08:07;32.58;;;16.80;;
24381;SDS011;12502;50.678;7.172;2022-12-01T04:13:09;32.85;;;18.40;;
24381;SDS011;12502;50.678;7.172;2022-12-01T04:18:22;35.75;;;17.67;;
24381;SDS011;12502;50.678;7.172;2022-12-01T04:23:24;35.45;;;18.48;;
24381;SDS011;12502;50.678;7.172;2022-12-01T04:29:02;37.38;;;19.38;;
24381;SDS011;12502;50.678;7.172;2022-12-01T04:34:06;41.85;;;20.10;;
24381;SDS011;12502;50.678;7.172;2022-12-01T04:39:09;33.90;;;18.70;;
24381;SDS011;12502;50.678;7.172;2022-12-01T04:44:11;36.90;;;20.05;;
24381;SDS011;12502;50.678;7.172;2022-12-01T04:49:13;40.60;;;21.00;;
24381;SDS011;12502;50.678;7.172;2022-12-01T04:54:15;38.22;;;19.17;;
24381;SDS011;12502;50.678;7.172;2022-12-01T04:59:17;41.75;;;20.85;;
24381;SDS011;12502;50.678;7.172;2022-12-01T05:04:19;43.35;;;21.55;;
24381;SDS011;12502;50.678;7.172;2022-12-01T05:09:20;46.72;;;22.05;;
24381;SDS011;12502;50.678;7.172;2022-12-01T05:14:22;45.90;;;22.77;;
24381;SDS011;12502;50.678;7.172;2022-12-01T05:19:24;43.80;;;21.98;;
24381;SDS011;12502;50.678;7.172;2022-12-01T05:24:44;40.28;;;20.90;;
24381;SDS011;12502;50.678;7.172;2022-12-01T05:29:46;47.53;;;22.20;;
24381;SDS011;12502;50.678;7.172;2022-12-01T05:34:48;46.83;;;21.42;;
24381;SDS011;12502;50.678;7.172;2022-12-01T05:39:50;44.88;;;23.55;;
24381;SDS011;12502;50.678;7.172;2022-12-01T05:44:51;43.88;;;22.10;;
24381;SDS011;12502;50.678;7.172;2022-12-01T05:49:53;42.28;;;21.08;;
24381;SDS011;12502;50.678;7.172;2022-12-01T05:54:55;43.63;;;21.33;;
24381;SDS011;12502;50.678;7.172;2022-12-01T05:59:57;48.38;;;23.77;;
24381;SDS011;12502;50.678;7.172;2022-12-01T06:04:58;43.25;;;21.60;;
24381;SDS011;12502;50.678;7.172;2022-12-01T06:10:00;43.75;;;20.98;;
24381;SDS011;12502;50.678;7.172;2022-12-01T06:15:02;43.92;;;23.52;;
24381;SDS011;12502;50.678;7.172;2022-12-01T06:20:06;43.70;;;22.40;;
24381;SDS011;12502;50.678;7.172;2022-12-01T06:25:09;41.05;;;21.95;;
24381;SDS011;12502;50.678;7.172;2022-12-01T06:30:11;47.17;;;23.15;;
24381;SDS011;12502;50.678;7.172;2022-12-01T06:35:12;50.83;;;24.70;;
24381;SDS011;12502;50.678;7.172;2022-12-01T06:40:14;48.45;;;23.50;;
24381;SDS011;12502;50.678;7.172;2022-12-01T06:45:16;45.42;;;23.40;;
24381;SDS011;12502;50.678;7.172;2022-12-01T06:50:18;49.85;;;24.58;;
24381;SDS011;12502;50.678;7.172;2022-12-01T06:55:20;52.85;;;24.13;;
24381;SDS011;12502;50.678;7.172;2022-12-01T07:00:22;46.38;;;23.50;;
24381;SDS011;12502;50.678;7.172;2022-12-01T07:05:24;50.13;;;23.60;;
24381;SDS011;12502;50.678;7.172;2022-12-01T07:10:26;49.00;;;23.42;;
24381;SDS011;12502;50.678;7.172;2022-12-01T07:15:28;53.75;;;25.60;;
24381;SDS011;12502;50.678;7.172;2022-12-01T07:20:30;46.47;;;24.08;;
24381;SDS011;12502;50.678;7.172;2022-12-01T07:25:31;47.10;;;22.95;;
24381;SDS011;12502;50.678;7.172;2022-12-01T07:30:33;45.33;;;22.50;;
24381;SDS011;12502;50.678;7.172;2022-12-01T07:35:35;45.28;;;23.73;;
24381;SDS011;12502;50.678;7.172;2022-12-01T07:40:37;42.22;;;22.55;;
24381;SDS011;12502;50.678;7.172;2022-12-01T07:45:38;49.05;;;23.58;;
24381;SDS011;12502;50.678;7.172;2022-12-01T07:50:40;46.92;;;23.70;;
24381;SDS011;12502;50.678;7.172;2022-12-01T07:55:46;44.88;;;23.77;;
24381;SDS011;12502;50.678;7.172;2022-12-01T08:00:49;46.75;;;22.52;;
24381;SDS011;12502;50.678;7.172;2022-12-01T08:05:57;41.50;;;22.98;;
24381;SDS011;12502;50.678;7.172;2022-12-01T08:11:01;42.08;;;22.58;;
24381;SDS011;12502;50.678;7.172;2022-12-01T08:16:18;46.03;;;23.10;;
24381;SDS011;12502;50.678;7.172;2022-12-01T08:21:24;44.08;;;23.95;;
24381;SDS011;12502;50.678;7.172;2022-12-01T08:26:26;49.80;;;24.73;;
24381;SDS011;12502;50.678;7.172;2022-12-01T08:31:32;46.35;;;25.95;;
24381;SDS011;12502;50.678;7.172;2022-12-01T08:36:36;50.58;;;25.75;;
24381;SDS011;12502;50.678;7.172;2022-12-01T08:41:37;44.17;;;23.88;;
24381;SDS011;12502;50.678;7.172;2022-12-01T08:46:39;41.10;;;22.48;;
24381;SDS011;12502;50.678;7.172;2022-12-01T08:51:41;46.65;;;22.75;;
24381;SDS011;12502;50.678;7.172;2022-12-01T08:56:43;45.17;;;23.13;;
24381;SDS011;12502;50.678;7.172;2022-12-01T09:01:45;41.15;;;21.95;;
24381;SDS011;12502;50.678;7.172;2022-12-01T09:06:53;40.08;;;22.10;;
24381;SDS011;12502;50.678;7.172;2022-12-01T09:11:56;42.58;;;23.23;;
24381;SDS011;12502;50.678;7.172;2022-12-01T09:16:58;42.75;;;22.92;;
24381;SDS011;12502;50.678;7.172;2022-12-01T09:22:00;45.78;;;22.92;;
24381;SDS011;12502;50.678;7.172;2022-12-01T09:27:02;44.72;;;23.15;;
24381;SDS011;12502;50.678;7.172;2022-12-01T09:32:04;40.92;;;22.73;;
24381;SDS011;12502;50.678;7.172;2022-12-01T09:37:06;50.15;;;24.58;;
24381;SDS011;12502;50.678;7.172;2022-12-01T09:42:10;38.95;;;22.45;;
24381;SDS011;12502;50.678;7.172;2022-12-01T09:47:34;41.80;;;21.38;;
24381;SDS011;12502;50.678;7.172;2022-12-01T09:52:48;46.83;;;22.48;;
24381;SDS011;12502;50.678;7.172;2022-12-01T09:57:58;39.03;;;21.00;;
24381;SDS011;12502;50.678;7.172;2022-12-01T10:08:22;37.40;;;20.52;;
24381;SDS011;12502;50.678;7.172;2022-12-01T10:13:27;36.10;;;19.45;;
24381;SDS011;12502;50.678;7.172;2022-12-01T10:18:33;36.95;;;19.63;;
24381;SDS011;12502;50.678;7.172;2022-12-01T10:24:07;31.30;;;17.45;;
24381;SDS011;12502;50.678;7.172;2022-12-01T10:34:50;34.40;;;18.23;;
24381;SDS011;12502;50.678;7.172;2022-12-01T10:39:52;30.65;;;16.52;;
24381;SDS011;12502;50.678;7.172;2022-12-01T10:44:56;25.37;;;15.27;;
24381;SDS011;12502;50.678;7.172;2022-12-01T10:50:02;28.80;;;15.32;;
24381;SDS011;12502;50.678;7.172;2022-12-01T10:55:25;25.95;;;14.70;;
24381;SDS011;12502;50.678;7.172;2022-12-01T11:00:31;21.23;;;13.70;;
24381;SDS011;12502;50.678;7.172;2022-12-01T11:05:56;22.55;;;14.45;;
24381;SDS011;12502;50.678;7.172;2022-12-01T11:16:02;25.52;;;15.07;;
24381;SDS011;12502;50.678;7.172;2022-12-01T11:21:07;21.95;;;14.38;;
24381;SDS011;12502;50.678;7.172;2022-12-01T11:31:16;20.15;;;13.20;;
24381;SDS011;12502;50.678;7.172;2022-12-01T11:36:24;20.52;;;13.02;;
24381;SDS011;12502;50.678;7.172;2022-12-01T11:41:28;19.35;;;12.77;;
24381;SDS011;12502;50.678;7.172;2022-12-01T11:46:34;19.52;;;11.73;;
24381;SDS011;12502;50.678;7.172;2022-12-01T11:51:50;23.25;;;12.15;;
24381;SDS011;12502;50.678;7.172;2022-12-01T11:56:52;18.25;;;11.45;;
24381;SDS011;12502;50.678;7.172;2022-12-01T12:23:31;20.90;;;11.38;;
24381;SDS011;12502;50.678;7.172;2022-12-01T12:40:12;19.60;;;11.43;;
24381;SDS011;12502;50.678;7.172;2022-12-01T12:56:12;21.25;;;12.77;;
24381;SDS011;12502;50.678;7.172;2022-12-01T13:01:24;21.95;;;13.52;;
24381;SDS011;12502;50.678;7.172;2022-12-01T13:06:50;26.35;;;13.60;;
24381;SDS011;12502;50.678;7.172;2022-12-01T13:12:02;26.42;;;14.93;;
24381;SDS011;12502;50.678;7.172;2022-12-01T13:17:20;25.80;;;15.15;;
24381;SDS011;12502;50.678;7.172;2022-12-01T13:22:28;25.63;;;15.68;;
24381;SDS011;12502;50.678;7.172;2022-12-01T13:27:33;29.80;;;17.27;;
24381;SDS011;12502;50.678;7.172;2022-12-01T13:32:40;30.83;;;17.08;;
24381;SDS011;12502;50.678;7.172;2022-12-01T13:37:43;32.20;;;16.80;;
24381;SDS011;12502;50.678;7.172;2022-12-01T13:43:03;35.00;;;18.02;;
24381;SDS011;12502;50.678;7.172;2022-12-01T13:48:25;31.00;;;17.08;;
24381;SDS011;12502;50.678;7.172;2022-12-01T13:53:36;33.05;;;17.75;;
24381;SDS011;12502;50.678;7.172;2022-12-01T13:58:48;34.13;;;18.58;;
24381;SDS011;12502;50.678;7.172;2022-12-01T14:09:10;39.67;;;20.98;;
24381;SDS011;12502;50.678;7.172;2022-12-01T14:14:18;39.08;;;21.58;;
24381;SDS011;12502;50.678;7.172;2022-12-01T14:19:38;42.35;;;21.50;;
24381;SDS011;12502;50.678;7.172;2022-12-01T14:24:50;44.85;;;21.90;;
24381;SDS011;12502;50.678;7.172;2022-12-01T14:29:53;39.20;;;20.58;;
24381;SDS011;12502;50.678;7.172;2022-12-01T14:34:56;42.95;;;21.67;;
24381;SDS011;12502;50.678;7.172;2022-12-01T14:40:05;43.33;;;22.77;;
24381;SDS011;12502;50.678;7.172;2022-12-01T14:45:23;43.95;;;21.92;;
24381;SDS011;12502;50.678;7.172;2022-12-01T14:50:49;45.63;;;23.63;;
24381;SDS011;12502;50.678;7.172;2022-12-01T14:55:55;47.67;;;25.63;;
24381;SDS011;12502;50.678;7.172;2022-12-01T15:01:05;47.20;;;22.98;;
24381;SDS011;12502;50.678;7.172;2022-12-01T15:06:14;46.25;;;24.63;;
24381;SDS011;12502;50.678;7.172;2022-12-01T15:11:24;43.67;;;24.10;;
24381;SDS011;12502;50.678;7.172;2022-12-01T15:16:29;49.42;;;24.02;;
24381;SDS011;12502;50.678;7.172;2022-12-01T15:21:32;47.33;;;24.63;;
24381;SDS011;12502;50.678;7.172;2022-12-01T15:26:35;43.53;;;23.10;;
24381;SDS011;12502;50.678;7.172;2022-12-01T15:31:52;48.03;;;23.65;;
24381;SDS011;12502;50.678;7.172;2022-12-01T15:36:55;51.53;;;25.25;;
24381;SDS011;12502;50.678;7.172;2022-12-01T15:41:58;47.28;;;24.73;;
24381;SDS011;12502;50.678;7.172;2022-12-01T15:52:31;45.75;;;22.27;;
24381;SDS011;12502;50.678;7.172;2022-12-01T15:57:43;48.05;;;23.83;;
24381;SDS011;12502;50.678;7.172;2022-12-01T16:02:53;48.25;;;22.85;;
24381;SDS011;12502;50.678;7.172;2022-12-01T16:07:57;43.85;;;22.00;;
24381;SDS011;12502;50.678;7.172;2022-12-01T16:18:59;47.40;;;23.38;;
24381;SDS011;12502;50.678;7.172;2022-12-01T16:29:12;45.28;;;22.45;;
24381;SDS011;12502;50.678;7.172;2022-12-01T16:34:22;49.75;;;24.58;;
24381;SDS011;12502;50.678;7.172;2022-12-01T16:39:44;45.55;;;23.80;;
24381;SDS011;12502;50.678;7.172;2022-12-01T16:44:46;49.05;;;24.67;;
24381;SDS011;12502;50.678;7.172;2022-12-01T16:49:50;50.67;;;24.97;;
24381;SDS011;12502;50.678;7.172;2022-12-01T16:54:52;44.70;;;24.08;;
24381;SDS011;12502;50.678;7.172;2022-12-01T16:59:54;48.75;;;25.38;;
24381;SDS011;12502;50.678;7.172;2022-12-01T17:04:56;50.92;;;25.42;;
24381;SDS011;12502;50.678;7.172;2022-12-01T17:09:57;50.80;;;25.85;;
24381;SDS011;12502;50.678;7.172;2022-12-01T17:14:59;53.67;;;25.75;;
24381;SDS011;12502;50.678;7.172;2022-12-01T17:20:01;48.63;;;25.98;;
24381;SDS011;12502;50.678;7.172;2022-12-01T17:25:05;45.40;;;24.65;;
24381;SDS011;12502;50.678;7.172;2022-12-01T17:30:09;50.45;;;25.70;;
24381;SDS011;12502;50.678;7.172;2022-12-01T17:35:12;48.45;;;26.52;;
24381;SDS011;12502;50.678;7.172;2022-12-01T17:40:13;49.60;;;25.88;;
24381;SDS011;12502;50.678;7.172;2022-12-01T17:45:15;49.47;;;25.52;;
24381;SDS011;12502;50.678;7.172;2022-12-01T17:50:17;54.75;;;26.05;;
24381;SDS011;12502;50.678;7.172;2022-12-01T17:55:19;50.42;;;27.02;;
24381;SDS011;12502;50.678;7.172;2022-12-01T18:00:21;48.03;;;24.38;;
24381;SDS011;12502;50.678;7.172;2022-12-01T18:05:23;50.65;;;27.00;;
24381;SDS011;12502;50.678;7.172;2022-12-01T18:10:25;47.47;;;25.73;;
24381;SDS011;12502;50.678;7.172;2022-12-01T18:15:27;49.90;;;25.73;;
24381;SDS011;12502;50.678;7.172;2022-12-01T18:20:38;47.17;;;26.27;;
24381;SDS011;12502;50.678;7.172;2022-12-01T18:25:43;47.78;;;26.60;;
24381;SDS011;12502;50.678;7.172;2022-12-01T18:30:45;49.45;;;27.50;;
24381;SDS011;12502;50.678;7.172;2022-12-01T18:35:46;49.97;;;25.23;;
24381;SDS011;12502;50.678;7.172;2022-12-01T18:40:48;52.35;;;28.27;;
24381;SDS011;12502;50.678;7.172;2022-12-01T18:45:50;50.03;;;26.55;;
24381;SDS011;12502;50.678;7.172;2022-12-01T18:50:52;52.78;;;28.00;;
24381;SDS011;12502;50.678;7.172;2022-12-01T18:56:00;51.92;;;26.67;;
24381;SDS011;12502;50.678;7.172;2022-12-01T19:01:04;52.60;;;27.95;;
24381;SDS011;12502;50.678;7.172;2022-12-01T19:06:21;51.05;;;26.40;;
24381;SDS011;12502;50.678;7.172;2022-12-01T19:11:23;55.13;;;27.65;;
24381;SDS011;12502;50.678;7.172;2022-12-01T19:16:25;56.25;;;26.20;;
24381;SDS011;12502;50.678;7.172;2022-12-01T19:21:27;60.88;;;30.63;;
24381;SDS011;12502;50.678;7.172;2022-12-01T19:26:29;50.95;;;26.67;;
24381;SDS011;12502;50.678;7.172;2022-12-01T19:31:31;55.75;;;28.88;;
24381;SDS011;12502;50.678;7.172;2022-12-01T19:36:33;56.20;;;27.50;;
24381;SDS011;12502;50.678;7.172;2022-12-01T19:41:34;55.67;;;28.33;;
24381;SDS011;12502;50.678;7.172;2022-12-01T19:46:36;56.75;;;28.58;;
24381;SDS011;12502;50.678;7.172;2022-12-01T19:51:38;58.22;;;29.10;;
24381;SDS011;12502;50.678;7.172;2022-12-01T19:56:40;57.97;;;27.90;;
24381;SDS011;12502;50.678;7.172;2022-12-01T20:01:42;55.05;;;26.90;;
24381;SDS011;12502;50.678;7.172;2022-12-01T20:06:44;55.60;;;27.95;;
24381;SDS011;12502;50.678;7.172;2022-12-01T20:11:46;51.92;;;26.60;;
24381;SDS011;12502;50.678;7.172;2022-12-01T20:16:48;56.40;;;28.10;;
24381;SDS011;12502;50.678;7.172;2022-12-01T20:21:50;58.85;;;27.75;;
24381;SDS011;12502;50.678;7.172;2022-12-01T20:26:52;60.67;;;28.95;;
24381;SDS011;12502;50.678;7.172;2022-12-01T20:31:57;60.92;;;29.45;;
24381;SDS011;12502;50.678;7.172;2022-12-01T20:37:01;61.10;;;30.75;;
24381;SDS011;12502;50.678;7.172;2022-12-01T20:42:04;57.73;;;28.83;;
24381;SDS011;12502;50.678;7.172;2022-12-01T20:47:06;60.20;;;30.63;;
24381;SDS011;12502;50.678;7.172;2022-12-01T20:52:08;51.80;;;26.35;;
24381;SDS011;12502;50.678;7.172;2022-12-01T20:57:09;61.47;;;28.95;;
24381;SDS011;12502;50.678;7.172;2022-12-01T21:02:11;54.72;;;27.55;;
24381;SDS011;12502;50.678;7.172;2022-12-01T21:07:13;56.38;;;27.00;;
24381;SDS011;12502;50.678;7.172;2022-12-01T21:12:15;60.95;;;27.45;;
24381;SDS011;12502;50.678;7.172;2022-12-01T21:17:37;57.50;;;27.38;;
24381;SDS011;12502;50.678;7.172;2022-12-01T21:22:43;51.05;;;25.23;;
24381;SDS011;12502;50.678;7.172;2022-12-01T21:27:46;49.85;;;24.05;;
24381;SDS011;12502;50.678;7.172;2022-12-01T21:32:48;50.53;;;25.38;;
24381;SDS011;12502;50.678;7.172;2022-12-01T21:37:52;51.97;;;25.48;;
24381;SDS011;12502;50.678;7.172;2022-12-01T21:43:00;54.20;;;24.60;;
24381;SDS011;12502;50.678;7.172;2022-12-01T21:48:17;44.33;;;22.70;;
24381;SDS011;12502;50.678;7.172;2022-12-01T21:53:23;42.72;;;21.25;;
24381;SDS011;12502;50.678;7.172;2022-12-01T21:58:32;40.25;;;20.30;;
24381;SDS011;12502;50.678;7.172;2022-12-01T22:03:44;42.92;;;22.05;;
24381;SDS011;12502;50.678;7.172;2022-12-01T22:08:47;36.05;;;20.50;;
24381;SDS011;12502;50.678;7.172;2022-12-01T22:13:59;39.53;;;20.48;;
24381;SDS011;12502;50.678;7.172;2022-12-01T22:19:08;39.33;;;20.35;;
24381;SDS011;12502;50.678;7.172;2022-12-01T22:24:45;39.13;;;19.98;;
24381;SDS011;12502;50.678;7.172;2022-12-01T22:30:02;40.45;;;19.92;;
24381;SDS011;12502;50.678;7.172;2022-12-01T22:35:19;39.00;;;19.40;;
24381;SDS011;12502;50.678;7.172;2022-12-01T22:45:49;37.92;;;18.88;;
24381;SDS011;12502;50.678;7.172;2022-12-01T22:51:09;37.67;;;19.23;;
24381;SDS011;12502;50.678;7.172;2022-12-01T22:56:55;38.35;;;18.80;;
24381;SDS011;12502;50.678;7.172;2022-12-01T23:01:51;38.47;;;18.30;;
24381;SDS011;12502;50.678;7.172;2022-12-01T23:06:58;35.03;;;18.50;;
24381;SDS011;12502;50.678;7.172;2022-12-01T23:12:03;25.50;;;13.60;;
24381;SDS011;12502;50.678;7.172;2022-12-01T23:17:12;38.53;;;18.15;;
24381;SDS011;12502;50.678;7.172;2022-12-01T23:22:18;38.08;;;18.92;;
24381;SDS011;12502;50.678;7.172;2022-12-01T23:27:20;38.92;;;18.00;;
24381;SDS011;12502;50.678;7.172;2022-12-01T23:32:22;39.47;;;19.15;;
24381;SDS011;12502;50.678;7.172;2022-12-01T23:37:33;36.17;;;19.48;;
24381;SDS011;12502;50.678;7.172;2022-12-01T23:42:40;33.03;;;18.15;;
24381;SDS011;12502;50.678;7.172;2022-12-01T23:47:42;35.17;;;18.20;;
24381;SDS011;12502;50.678;7.172;2022-12-01T23:52:43;32.40;;;18.35;;
24381;SDS011;12502;50.678;7.172;2022-12-01T23:57:46;34.20;;;17.42;;
